Aviation Digital Data Service (ADDS)

Output produced by METARs form (0824 UTC 20 March 2019)
found at http://www.aviationweather.gov/metar/data/
 
METAR text: YBBN 200800Z 08007KT 9999 FEW015 FEW040TCU 26/23 Q1010
Conditions at: YBBN (BRISBANE INTL AR, AU) observed 0800 UTC 20 March 2019
Temperature: 26.0°C (79°F)
Dewpoint: 23.0°C (73°F) [RH = 84%]
Pressure (altimeter): 29.82 inches Hg (1010.0 mb)
Winds: from the E (80 degrees) at 8 MPH (7 knots; 3.6 m/s)
Visibility: 6 or more miles (10+ km)
Ceiling: at least 12,000 feet AGL
Clouds: few clouds at 1500 feet AGL
few clouds at 4000 feet AGL
Weather: no significant weather observed at this time

METAR text: YBBN 200730Z 09009KT 9999 FEW015 SCT280 FEW040TCU 26/23 Q1010 NOSIG
Conditions at: YBBN (BRISBANE INTL AR, AU) observed 0730 UTC 20 March 2019
Temperature: 26.0°C (79°F)
Dewpoint: 23.0°C (73°F) [RH = 84%]
Pressure (altimeter): 29.82 inches Hg (1010.0 mb)
Winds: from the E (90 degrees) at 10 MPH (9 knots; 4.6 m/s)
Visibility: 6 or more miles (10+ km)
Ceiling: at least 12,000 feet AGL
Clouds: few clouds at 1500 feet AGL
scattered clouds at 28000 feet AGL
few clouds at 4000 feet AGL
Weather: no significant weather observed at this time

METAR text: YBBN 200700Z 09009KT 9999 FEW040 BKN280 27/23 Q1010 NOSIG
Conditions at: YBBN (BRISBANE INTL AR, AU) observed 0700 UTC 20 March 2019
Temperature: 27.0°C (81°F)
Dewpoint: 23.0°C (73°F) [RH = 79%]
Pressure (altimeter): 29.82 inches Hg (1010.0 mb)
Winds: from the E (90 degrees) at 10 MPH (9 knots; 4.6 m/s)
Visibility: 6 or more miles (10+ km)
Ceiling: 28000 feet AGL
Clouds: few clouds at 4000 feet AGL
broken clouds at 28000 feet AGL
Weather: no significant weather observed at this time

METAR text: YBBN 200630Z 07009KT 9999 FEW020 BKN280 FEW040CB 26/23 Q1010
Conditions at: YBBN (BRISBANE INTL AR, AU) observed 0630 UTC 20 March 2019
Temperature: 26.0°C (79°F)
Dewpoint: 23.0°C (73°F) [RH = 84%]
Pressure (altimeter): 29.82 inches Hg (1010.0 mb)
Winds: from the ENE (70 degrees) at 10 MPH (9 knots; 4.6 m/s)
Visibility: 6 or more miles (10+ km)
Ceiling: 28000 feet AGL
Clouds: few clouds at 2000 feet AGL
broken clouds at 28000 feet AGL
few clouds at 4000 feet AGL
Weather: no significant weather observed at this time

METAR text: YBBN 200600Z AUTO 07010KT 9999 // ////// 27/24 Q1010 FM0700 07010KT 8000 -SHRA SCT015 BKN020 FM0800 06012KT 9999 -SHRA SCT012 BKN020
Conditions at: YBBN (BRISBANE INTL AR, AU) observed 0600 UTC 20 March 2019
Temperature: 27.0°C (81°F)
Dewpoint: 24.0°C (75°F) [RH = 84%]
Pressure (altimeter): 29.82 inches Hg (1010.0 mb)
Winds: from the ENE (70 degrees) at 12 MPH (10 knots; 5.1 m/s)
Visibility: 6 or more miles (10+ km)
Ceiling: unknown
Clouds: missing
Weather: no significant weather observed at this time

METAR text: YBBN 200530Z 07011KT 9999 FEW015 BKN280 FEW040TCU 27/23 Q1009 NOSIG
Conditions at: YBBN (BRISBANE INTL AR, AU) observed 0530 UTC 20 March 2019
Temperature: 27.0°C (81°F)
Dewpoint: 23.0°C (73°F) [RH = 79%]
Pressure (altimeter): 29.79 inches Hg (1009.0 mb)
Winds: from the ENE (70 degrees) at 13 MPH (11 knots; 5.7 m/s)
Visibility: 6 or more miles (10+ km)
Ceiling: 28000 feet AGL
Clouds: few clouds at 1500 feet AGL
broken clouds at 28000 feet AGL
few clouds at 4000 feet AGL
Weather: no significant weather observed at this time

METAR text: YBBN 200500Z AUTO 07012KT 9999 // ////// 27/23 Q1009 RMK RF00.0/000.0 NOSIG
Conditions at: YBBN (BRISBANE INTL AR, AU) observed 0500 UTC 20 March 2019
Temperature: 27.0°C (81°F)
Dewpoint: 23.0°C (73°F) [RH = 79%]
Pressure (altimeter): 29.79 inches Hg (1009.0 mb)
Winds: from the ENE (70 degrees) at 14 MPH (12 knots; 6.2 m/s)
Visibility: 6 or more miles (10+ km)
Ceiling: unknown
Clouds: missing
Weather: no significant weather observed at this time

METAR text: YBBN 200430Z 07009KT 9999 FEW040TCU BKN280 28/23 Q1009 NOSIG
Conditions at: YBBN (BRISBANE INTL AR, AU) observed 0430 UTC 20 March 2019
Temperature: 28.0°C (82°F)
Dewpoint: 23.0°C (73°F) [RH = 74%]
Pressure (altimeter): 29.79 inches Hg (1009.0 mb)
Winds: from the ENE (70 degrees) at 10 MPH (9 knots; 4.6 m/s)
Visibility: 6 or more miles (10+ km)
Ceiling: 28000 feet AGL
Clouds: few clouds at 4000 feet AGL
broken clouds at 28000 feet AGL
Weather: no significant weather observed at this time

METAR text: YBBN 200400Z 07011KT 9999 FEW040 BKN280 29/21 Q1009 NOSIG
Conditions at: YBBN (BRISBANE INTL AR, AU) observed 0400 UTC 20 March 2019
Temperature: 29.0°C (84°F)
Dewpoint: 21.0°C (70°F) [RH = 62%]
Pressure (altimeter): 29.79 inches Hg (1009.0 mb)
Winds: from the ENE (70 degrees) at 13 MPH (11 knots; 5.7 m/s)
Visibility: 6 or more miles (10+ km)
Ceiling: 28000 feet AGL
Clouds: few clouds at 4000 feet AGL
broken clouds at 28000 feet AGL
Weather: no significant weather observed at this time

METAR text: YBBN 200330Z 06009KT 9999 FEW040TCU BKN280 29/21 Q1010 NOSIG
Conditions at: YBBN (BRISBANE INTL AR, AU) observed 0330 UTC 20 March 2019
Temperature: 29.0°C (84°F)
Dewpoint: 21.0°C (70°F) [RH = 62%]
Pressure (altimeter): 29.82 inches Hg (1010.0 mb)
Winds: from the ENE (60 degrees) at 10 MPH (9 knots; 4.6 m/s)
Visibility: 6 or more miles (10+ km)
Ceiling: 28000 feet AGL
Clouds: few clouds at 4000 feet AGL
broken clouds at 28000 feet AGL
Weather: no significant weather observed at this time

METAR text: YBBN 200300Z 06009KT 9999 FEW040 BKN300 29/21 Q1010 NOSIG
Conditions at: YBBN (BRISBANE INTL AR, AU) observed 0300 UTC 20 March 2019
Temperature: 29.0°C (84°F)
Dewpoint: 21.0°C (70°F) [RH = 62%]
Pressure (altimeter): 29.82 inches Hg (1010.0 mb)
Winds: from the ENE (60 degrees) at 10 MPH (9 knots; 4.6 m/s)
Visibility: 6 or more miles (10+ km)
Ceiling: 30000 feet AGL
Clouds: few clouds at 4000 feet AGL
broken clouds at 30000 feet AGL
Weather: no significant weather observed at this time

METAR text: YBBN 200230Z 06009KT 9999 FEW040 BKN280 29/20 Q1011 NOSIG
Conditions at: YBBN (BRISBANE INTL AR, AU) observed 0230 UTC 20 March 2019
Temperature: 29.0°C (84°F)
Dewpoint: 20.0°C (68°F) [RH = 58%]
Pressure (altimeter): 29.85 inches Hg (1011.0 mb)
Winds: from the ENE (60 degrees) at 10 MPH (9 knots; 4.6 m/s)
Visibility: 6 or more miles (10+ km)
Ceiling: 28000 feet AGL
Clouds: few clouds at 4000 feet AGL
broken clouds at 28000 feet AGL
Weather: no significant weather observed at this time

METAR text: YBBN 200200Z 07009KT 9999 FEW040 29/21 Q1011
Conditions at: YBBN (BRISBANE INTL AR, AU) observed 0200 UTC 20 March 2019
Temperature: 29.0°C (84°F)
Dewpoint: 21.0°C (70°F) [RH = 62%]
Pressure (altimeter): 29.85 inches Hg (1011.0 mb)
Winds: from the ENE (70 degrees) at 10 MPH (9 knots; 4.6 m/s)
Visibility: 6 or more miles (10+ km)
Ceiling: at least 12,000 feet AGL
Clouds: few clouds at 4000 feet AGL
Weather: no significant weather observed at this time

METAR text: YBBN 200130Z 07009KT 9999 FEW040 SCT280 29/21 Q1011 NOSIG
Conditions at: YBBN (BRISBANE INTL AR, AU) observed 0130 UTC 20 March 2019
Temperature: 29.0°C (84°F)
Dewpoint: 21.0°C (70°F) [RH = 62%]
Pressure (altimeter): 29.85 inches Hg (1011.0 mb)
Winds: from the ENE (70 degrees) at 10 MPH (9 knots; 4.6 m/s)
Visibility: 6 or more miles (10+ km)
Ceiling: at least 12,000 feet AGL
Clouds: few clouds at 4000 feet AGL
scattered clouds at 28000 feet AGL
Weather: no significant weather observed at this time

METAR text: YBBN 200100Z 09008KT 9999 FEW040 29/21 Q1012
Conditions at: YBBN (BRISBANE INTL AR, AU) observed 0100 UTC 20 March 2019
Temperature: 29.0°C (84°F)
Dewpoint: 21.0°C (70°F) [RH = 62%]
Pressure (altimeter): 29.88 inches Hg (1012.0 mb)
Winds: from the E (90 degrees) at 9 MPH (8 knots; 4.1 m/s)
Visibility: 6 or more miles (10+ km)
Ceiling: at least 12,000 feet AGL
Clouds: few clouds at 4000 feet AGL
Weather: no significant weather observed at this time

METAR text: YBBN 200030Z 13005KT 090V180 9999 FEW040 SCT300 28/21 Q1012 NOSIG
Conditions at: YBBN (BRISBANE INTL AR, AU) observed 0030 UTC 20 March 2019
Temperature: 28.0°C (82°F)
Dewpoint: 21.0°C (70°F) [RH = 66%]
Pressure (altimeter): 29.88 inches Hg (1012.0 mb)
Winds: from the SE (130 degrees) at 6 MPH (5 knots; 2.6 m/s)
Visibility: 6 or more miles (10+ km)
Ceiling: at least 12,000 feet AGL
Clouds: few clouds at 4000 feet AGL
scattered clouds at 30000 feet AGL
Weather: no significant weather observed at this time

METAR text: YBBN 200000Z 11005KT 060V140 CAVOK 28/20 Q1012 NOSIG
Conditions at: YBBN (BRISBANE INTL AR, AU) observed 0000 UTC 20 March 2019
Temperature: 28.0°C (82°F)
Dewpoint: 20.0°C (68°F) [RH = 62%]
Pressure (altimeter): 29.88 inches Hg (1012.0 mb)
Winds: from the ESE (110 degrees) at 6 MPH (5 knots; 2.6 m/s)
Visibility: 6 or more miles (10+ km)
Ceiling: ceiling and visibility are OK
Clouds: unknown
Weather: no significant weather observed at this time

METAR text: YBBN 192330Z 21005KT 170V230 9999 FEW030 SCT300 28/20 Q1012 FM0130 04012KT 9999 FEW035
Conditions at: YBBN (BRISBANE INTL AR, AU) observed 2330 UTC 19 March 2019
Temperature: 28.0°C (82°F)
Dewpoint: 20.0°C (68°F) [RH = 62%]
Pressure (altimeter): 29.88 inches Hg (1012.0 mb)
Winds: from the SSW (210 degrees) at 6 MPH (5 knots; 2.6 m/s)
Visibility: 6 or more miles (10+ km)
Ceiling: at least 12,000 feet AGL
Clouds: few clouds at 3000 feet AGL
scattered clouds at 30000 feet AGL
Weather: no significant weather observed at this time

METAR text: YBBN 192300Z 20005KT 9999 FEW030 27/20 Q1012 FM0130 04012KT 9999 FEW035
Conditions at: YBBN (BRISBANE INTL AR, AU) observed 2300 UTC 19 March 2019
Temperature: 27.0°C (81°F)
Dewpoint: 20.0°C (68°F) [RH = 66%]
Pressure (altimeter): 29.88 inches Hg (1012.0 mb)
Winds: from the SSW (200 degrees) at 6 MPH (5 knots; 2.6 m/s)
Visibility: 6 or more miles (10+ km)
Ceiling: at least 12,000 feet AGL
Clouds: few clouds at 3000 feet AGL
Weather: no significant weather observed at this time

METAR text: YBBN 192230Z 22007KT CAVOK 26/20 Q1012 NOSIG
Conditions at: YBBN (BRISBANE INTL AR, AU) observed 2230 UTC 19 March 2019
Temperature: 26.0°C (79°F)
Dewpoint: 20.0°C (68°F) [RH = 70%]
Pressure (altimeter): 29.88 inches Hg (1012.0 mb)
Winds: from the SW (220 degrees) at 8 MPH (7 knots; 3.6 m/s)
Visibility: 6 or more miles (10+ km)
Ceiling: ceiling and visibility are OK
Clouds: unknown
Weather: no significant weather observed at this time

METAR text: YBBN 192200Z 21007KT CAVOK 25/20 Q1012 NOSIG
Conditions at: YBBN (BRISBANE INTL AR, AU) observed 2200 UTC 19 March 2019
Temperature: 25.0°C (77°F)
Dewpoint: 20.0°C (68°F) [RH = 74%]
Pressure (altimeter): 29.88 inches Hg (1012.0 mb)
Winds: from the SSW (210 degrees) at 8 MPH (7 knots; 3.6 m/s)
Visibility: 6 or more miles (10+ km)
Ceiling: ceiling and visibility are OK
Clouds: unknown
Weather: no significant weather observed at this time

METAR text: YBBN 192130Z 21007KT CAVOK 24/20 Q1011 NOSIG
Conditions at: YBBN (BRISBANE INTL AR, AU) observed 2130 UTC 19 March 2019
Temperature: 24.0°C (75°F)
Dewpoint: 20.0°C (68°F) [RH = 78%]
Pressure (altimeter): 29.85 inches Hg (1011.0 mb)
Winds: from the SSW (210 degrees) at 8 MPH (7 knots; 3.6 m/s)
Visibility: 6 or more miles (10+ km)
Ceiling: ceiling and visibility are OK
Clouds: unknown
Weather: no significant weather observed at this time

METAR text: YBBN 192100Z 20005KT CAVOK 23/20 Q1011 NOSIG
Conditions at: YBBN (BRISBANE INTL AR, AU) observed 2100 UTC 19 March 2019
Temperature: 23.0°C (73°F)
Dewpoint: 20.0°C (68°F) [RH = 83%]
Pressure (altimeter): 29.85 inches Hg (1011.0 mb)
Winds: from the SSW (200 degrees) at 6 MPH (5 knots; 2.6 m/s)
Visibility: 6 or more miles (10+ km)
Ceiling: ceiling and visibility are OK
Clouds: unknown
Weather: no significant weather observed at this time

METAR text: YBBN 192030Z 20005KT CAVOK 22/20 Q1011 NOSIG
Conditions at: YBBN (BRISBANE INTL AR, AU) observed 2030 UTC 19 March 2019
Temperature: 22.0°C (72°F)
Dewpoint: 20.0°C (68°F) [RH = 88%]
Pressure (altimeter): 29.85 inches Hg (1011.0 mb)
Winds: from the SSW (200 degrees) at 6 MPH (5 knots; 2.6 m/s)
Visibility: 6 or more miles (10+ km)
Ceiling: ceiling and visibility are OK
Clouds: unknown
Weather: no significant weather observed at this time

METAR text: YBBN 192000Z 21005KT CAVOK 21/20 Q1010
Conditions at: YBBN (BRISBANE INTL AR, AU) observed 2000 UTC 19 March 2019
Temperature: 21.0°C (70°F)
Dewpoint: 20.0°C (68°F) [RH = 94%]
Pressure (altimeter): 29.82 inches Hg (1010.0 mb)
Winds: from the SSW (210 degrees) at 6 MPH (5 knots; 2.6 m/s)
Visibility: 6 or more miles (10+ km)
Ceiling: ceiling and visibility are OK
Clouds: unknown
Weather: no significant weather observed at this time

METAR text: YBBN 191930Z 21004KT CAVOK 21/19 Q1010 NOSIG
Conditions at: YBBN (BRISBANE INTL AR, AU) observed 1930 UTC 19 March 2019
Temperature: 21.0°C (70°F)
Dewpoint: 19.0°C (66°F) [RH = 88%]
Pressure (altimeter): 29.82 inches Hg (1010.0 mb)
Winds: from the SSW (210 degrees) at 5 MPH (4 knots; 2.1 m/s)
Visibility: 6 or more miles (10+ km)
Ceiling: ceiling and visibility are OK
Clouds: unknown
Weather: no significant weather observed at this time

METAR text: YBBN 191900Z 00000KT CAVOK 21/19 Q1010 NOSIG
Conditions at: YBBN (BRISBANE INTL AR, AU) observed 1900 UTC 19 March 2019
Temperature: 21.0°C (70°F)
Dewpoint: 19.0°C (66°F) [RH = 88%]
Pressure (altimeter): 29.82 inches Hg (1010.0 mb)
Winds: calm
Visibility: 6 or more miles (10+ km)
Ceiling: ceiling and visibility are OK
Clouds: unknown
Weather: no significant weather observed at this time

METAR text: YBBN 191830Z 00000KT CAVOK 21/19 Q1010 NOSIG
Conditions at: YBBN (BRISBANE INTL AR, AU) observed 1830 UTC 19 March 2019
Temperature: 21.0°C (70°F)
Dewpoint: 19.0°C (66°F) [RH = 88%]
Pressure (altimeter): 29.82 inches Hg (1010.0 mb)
Winds: calm
Visibility: 6 or more miles (10+ km)
Ceiling: ceiling and visibility are OK
Clouds: unknown
Weather: no significant weather observed at this time

METAR text: YBBN 191800Z 23004KT CAVOK 21/20 Q1010 NOSIG
Conditions at: YBBN (BRISBANE INTL AR, AU) observed 1800 UTC 19 March 2019
Temperature: 21.0°C (70°F)
Dewpoint: 20.0°C (68°F) [RH = 94%]
Pressure (altimeter): 29.82 inches Hg (1010.0 mb)
Winds: from the SW (230 degrees) at 5 MPH (4 knots; 2.1 m/s)
Visibility: 6 or more miles (10+ km)
Ceiling: ceiling and visibility are OK
Clouds: unknown
Weather: no significant weather observed at this time

METAR text: YBBN 191730Z 00000KT CAVOK 21/19 Q1010 NOSIG
Conditions at: YBBN (BRISBANE INTL AR, AU) observed 1730 UTC 19 March 2019
Temperature: 21.0°C (70°F)
Dewpoint: 19.0°C (66°F) [RH = 88%]
Pressure (altimeter): 29.82 inches Hg (1010.0 mb)
Winds: calm
Visibility: 6 or more miles (10+ km)
Ceiling: ceiling and visibility are OK
Clouds: unknown
Weather: no significant weather observed at this time

METAR text: YBBN 191700Z 00000KT CAVOK 22/20 Q1009 NOSIG
Conditions at: YBBN (BRISBANE INTL AR, AU) observed 1700 UTC 19 March 2019
Temperature: 22.0°C (72°F)
Dewpoint: 20.0°C (68°F) [RH = 88%]
Pressure (altimeter): 29.79 inches Hg (1009.0 mb)
Winds: calm
Visibility: 6 or more miles (10+ km)
Ceiling: ceiling and visibility are OK
Clouds: unknown
Weather: no significant weather observed at this time

METAR text: YBBN 191630Z 27004KT CAVOK 22/19 Q1009 NOSIG
Conditions at: YBBN (BRISBANE INTL AR, AU) observed 1630 UTC 19 March 2019
Temperature: 22.0°C (72°F)
Dewpoint: 19.0°C (66°F) [RH = 83%]
Pressure (altimeter): 29.79 inches Hg (1009.0 mb)
Winds: from the W (270 degrees) at 5 MPH (4 knots; 2.1 m/s)
Visibility: 6 or more miles (10+ km)
Ceiling: ceiling and visibility are OK
Clouds: unknown
Weather: no significant weather observed at this time

METAR text: YBBN 191600Z 27005KT CAVOK 22/19 Q1010 NOSIG
Conditions at: YBBN (BRISBANE INTL AR, AU) observed 1600 UTC 19 March 2019
Temperature: 22.0°C (72°F)
Dewpoint: 19.0°C (66°F) [RH = 83%]
Pressure (altimeter): 29.82 inches Hg (1010.0 mb)
Winds: from the W (270 degrees) at 6 MPH (5 knots; 2.6 m/s)
Visibility: 6 or more miles (10+ km)
Ceiling: ceiling and visibility are OK
Clouds: unknown
Weather: no significant weather observed at this time

METAR text: YBBN 191530Z 26007KT CAVOK 23/20 Q1010 NOSIG
Conditions at: YBBN (BRISBANE INTL AR, AU) observed 1530 UTC 19 March 2019
Temperature: 23.0°C (73°F)
Dewpoint: 20.0°C (68°F) [RH = 83%]
Pressure (altimeter): 29.82 inches Hg (1010.0 mb)
Winds: from the W (260 degrees) at 8 MPH (7 knots; 3.6 m/s)
Visibility: 6 or more miles (10+ km)
Ceiling: ceiling and visibility are OK
Clouds: unknown
Weather: no significant weather observed at this time

METAR text: YBBN 191500Z 35007KT CAVOK 24/21 Q1010 NOSIG
Conditions at: YBBN (BRISBANE INTL AR, AU) observed 1500 UTC 19 March 2019
Temperature: 24.0°C (75°F)
Dewpoint: 21.0°C (70°F) [RH = 83%]
Pressure (altimeter): 29.82 inches Hg (1010.0 mb)
Winds: from the N (350 degrees) at 8 MPH (7 knots; 3.6 m/s)
Visibility: 6 or more miles (10+ km)
Ceiling: ceiling and visibility are OK
Clouds: unknown
Weather: no significant weather observed at this time

METAR text: YBBN 191430Z 36008KT CAVOK 24/21 Q1010 NOSIG
Conditions at: YBBN (BRISBANE INTL AR, AU) observed 1430 UTC 19 March 2019
Temperature: 24.0°C (75°F)
Dewpoint: 21.0°C (70°F) [RH = 83%]
Pressure (altimeter): 29.82 inches Hg (1010.0 mb)
Winds: from the N (360 degrees) at 9 MPH (8 knots; 4.1 m/s)
Visibility: 6 or more miles (10+ km)
Ceiling: ceiling and visibility are OK
Clouds: unknown
Weather: no significant weather observed at this time

METAR text: YBBN 191400Z 36009KT CAVOK 24/21 Q1010 NOSIG
Conditions at: YBBN (BRISBANE INTL AR, AU) observed 1400 UTC 19 March 2019
Temperature: 24.0°C (75°F)
Dewpoint: 21.0°C (70°F) [RH = 83%]
Pressure (altimeter): 29.82 inches Hg (1010.0 mb)
Winds: from the N (360 degrees) at 10 MPH (9 knots; 4.6 m/s)
Visibility: 6 or more miles (10+ km)
Ceiling: ceiling and visibility are OK
Clouds: unknown
Weather: no significant weather observed at this time

METAR text: YBBN 191330Z 36009KT CAVOK 25/21 Q1010 NOSIG
Conditions at: YBBN (BRISBANE INTL AR, AU) observed 1330 UTC 19 March 2019
Temperature: 25.0°C (77°F)
Dewpoint: 21.0°C (70°F) [RH = 79%]
Pressure (altimeter): 29.82 inches Hg (1010.0 mb)
Winds: from the N (360 degrees) at 10 MPH (9 knots; 4.6 m/s)
Visibility: 6 or more miles (10+ km)
Ceiling: ceiling and visibility are OK
Clouds: unknown
Weather: no significant weather observed at this time

METAR text: YBBN 191300Z 01011KT CAVOK 25/20 Q1011
Conditions at: YBBN (BRISBANE INTL AR, AU) observed 1300 UTC 19 March 2019
Temperature: 25.0°C (77°F)
Dewpoint: 20.0°C (68°F) [RH = 74%]
Pressure (altimeter): 29.85 inches Hg (1011.0 mb)
Winds: from the N (10 degrees) at 13 MPH (11 knots; 5.7 m/s)
Visibility: 6 or more miles (10+ km)
Ceiling: ceiling and visibility are OK
Clouds: unknown
Weather: no significant weather observed at this time

METAR text: YBBN 191230Z 36011KT CAVOK 25/20 Q1011 NOSIG
Conditions at: YBBN (BRISBANE INTL AR, AU) observed 1230 UTC 19 March 2019
Temperature: 25.0°C (77°F)
Dewpoint: 20.0°C (68°F) [RH = 74%]
Pressure (altimeter): 29.85 inches Hg (1011.0 mb)
Winds: from the N (360 degrees) at 13 MPH (11 knots; 5.7 m/s)
Visibility: 6 or more miles (10+ km)
Ceiling: ceiling and visibility are OK
Clouds: unknown
Weather: no significant weather observed at this time

METAR text: YBBN 191200Z 36010KT CAVOK 25/20 Q1011 NOSIG
Conditions at: YBBN (BRISBANE INTL AR, AU) observed 1200 UTC 19 March 2019
Temperature: 25.0°C (77°F)
Dewpoint: 20.0°C (68°F) [RH = 74%]
Pressure (altimeter): 29.85 inches Hg (1011.0 mb)
Winds: from the N (360 degrees) at 12 MPH (10 knots; 5.1 m/s)
Visibility: 6 or more miles (10+ km)
Ceiling: ceiling and visibility are OK
Clouds: unknown
Weather: no significant weather observed at this time

METAR text: YBBN 191130Z 36010KT CAVOK 25/20 Q1011 NOSIG
Conditions at: YBBN (BRISBANE INTL AR, AU) observed 1130 UTC 19 March 2019
Temperature: 25.0°C (77°F)
Dewpoint: 20.0°C (68°F) [RH = 74%]
Pressure (altimeter): 29.85 inches Hg (1011.0 mb)
Winds: from the N (360 degrees) at 12 MPH (10 knots; 5.1 m/s)
Visibility: 6 or more miles (10+ km)
Ceiling: ceiling and visibility are OK
Clouds: unknown
Weather: no significant weather observed at this time

METAR text: YBBN 191100Z 36010KT CAVOK 26/21 Q1011 NOSIG
Conditions at: YBBN (BRISBANE INTL AR, AU) observed 1100 UTC 19 March 2019
Temperature: 26.0°C (79°F)
Dewpoint: 21.0°C (70°F) [RH = 74%]
Pressure (altimeter): 29.85 inches Hg (1011.0 mb)
Winds: from the N (360 degrees) at 12 MPH (10 knots; 5.1 m/s)
Visibility: 6 or more miles (10+ km)
Ceiling: ceiling and visibility are OK
Clouds: unknown
Weather: no significant weather observed at this time

METAR text: YBBN 191030Z 36011KT 9999 FEW040 25/21 Q1011 NOSIG
Conditions at: YBBN (BRISBANE INTL AR, AU) observed 1030 UTC 19 March 2019
Temperature: 25.0°C (77°F)
Dewpoint: 21.0°C (70°F) [RH = 79%]
Pressure (altimeter): 29.85 inches Hg (1011.0 mb)
Winds: from the N (360 degrees) at 13 MPH (11 knots; 5.7 m/s)
Visibility: 6 or more miles (10+ km)
Ceiling: at least 12,000 feet AGL
Clouds: few clouds at 4000 feet AGL
Weather: no significant weather observed at this time

METAR text: YBBN 191000Z 01011KT 9999 FEW040 26/22 Q1011 NOSIG
Conditions at: YBBN (BRISBANE INTL AR, AU) observed 1000 UTC 19 March 2019
Temperature: 26.0°C (79°F)
Dewpoint: 22.0°C (72°F) [RH = 79%]
Pressure (altimeter): 29.85 inches Hg (1011.0 mb)
Winds: from the N (10 degrees) at 13 MPH (11 knots; 5.7 m/s)
Visibility: 6 or more miles (10+ km)
Ceiling: at least 12,000 feet AGL
Clouds: few clouds at 4000 feet AGL
Weather: no significant weather observed at this time

METAR text: YBBN 190930Z 01011KT 9999 FEW040 25/21 Q1011 NOSIG
Conditions at: YBBN (BRISBANE INTL AR, AU) observed 0930 UTC 19 March 2019
Temperature: 25.0°C (77°F)
Dewpoint: 21.0°C (70°F) [RH = 79%]
Pressure (altimeter): 29.85 inches Hg (1011.0 mb)
Winds: from the N (10 degrees) at 13 MPH (11 knots; 5.7 m/s)
Visibility: 6 or more miles (10+ km)
Ceiling: at least 12,000 feet AGL
Clouds: few clouds at 4000 feet AGL
Weather: no significant weather observed at this time

METAR text: YBBN 190900Z 02010KT CAVOK 26/21 Q1010 NOSIG
Conditions at: YBBN (BRISBANE INTL AR, AU) observed 0900 UTC 19 March 2019
Temperature: 26.0°C (79°F)
Dewpoint: 21.0°C (70°F) [RH = 74%]
Pressure (altimeter): 29.82 inches Hg (1010.0 mb)
Winds: from the NNE (20 degrees) at 12 MPH (10 knots; 5.1 m/s)
Visibility: 6 or more miles (10+ km)
Ceiling: ceiling and visibility are OK
Clouds: unknown
Weather: no significant weather observed at this time

METAR text: YBBN 190830Z 02012KT CAVOK 26/22 Q1010 NOSIG
Conditions at: YBBN (BRISBANE INTL AR, AU) observed 0830 UTC 19 March 2019
Temperature: 26.0°C (79°F)
Dewpoint: 22.0°C (72°F) [RH = 79%]
Pressure (altimeter): 29.82 inches Hg (1010.0 mb)
Winds: from the NNE (20 degrees) at 14 MPH (12 knots; 6.2 m/s)
Visibility: 6 or more miles (10+ km)
Ceiling: ceiling and visibility are OK
Clouds: unknown
Weather: no significant weather observed at this time

METAR text: YBBN 190800Z 02012KT CAVOK 26/22 Q1009
Conditions at: YBBN (BRISBANE INTL AR, AU) observed 0800 UTC 19 March 2019
Temperature: 26.0°C (79°F)
Dewpoint: 22.0°C (72°F) [RH = 79%]
Pressure (altimeter): 29.79 inches Hg (1009.0 mb)
Winds: from the NNE (20 degrees) at 14 MPH (12 knots; 6.2 m/s)
Visibility: 6 or more miles (10+ km)
Ceiling: ceiling and visibility are OK
Clouds: unknown
Weather: no significant weather observed at this time

METAR text: YBBN 190730Z 02013KT CAVOK 26/22 Q1009 NOSIG
Conditions at: YBBN (BRISBANE INTL AR, AU) observed 0730 UTC 19 March 2019
Temperature: 26.0°C (79°F)
Dewpoint: 22.0°C (72°F) [RH = 79%]
Pressure (altimeter): 29.79 inches Hg (1009.0 mb)
Winds: from the NNE (20 degrees) at 15 MPH (13 knots; 6.7 m/s)
Visibility: 6 or more miles (10+ km)
Ceiling: ceiling and visibility are OK
Clouds: unknown
Weather: no significant weather observed at this time

METAR text: YBBN 190700Z 02013KT CAVOK 27/22 Q1009 NOSIG
Conditions at: YBBN (BRISBANE INTL AR, AU) observed 0700 UTC 19 March 2019
Temperature: 27.0°C (81°F)
Dewpoint: 22.0°C (72°F) [RH = 74%]
Pressure (altimeter): 29.79 inches Hg (1009.0 mb)
Winds: from the NNE (20 degrees) at 15 MPH (13 knots; 6.7 m/s)
Visibility: 6 or more miles (10+ km)
Ceiling: ceiling and visibility are OK
Clouds: unknown
Weather: no significant weather observed at this time

METAR text: YBBN 190630Z 02013KT CAVOK 28/22 Q1008 NOSIG
Conditions at: YBBN (BRISBANE INTL AR, AU) observed 0630 UTC 19 March 2019
Temperature: 28.0°C (82°F)
Dewpoint: 22.0°C (72°F) [RH = 70%]
Pressure (altimeter): 29.76 inches Hg (1008.0 mb)
Winds: from the NNE (20 degrees) at 15 MPH (13 knots; 6.7 m/s)
Visibility: 6 or more miles (10+ km)
Ceiling: ceiling and visibility are OK
Clouds: unknown
Weather: no significant weather observed at this time

METAR text: YBBN 190600Z 03013KT CAVOK 29/22 Q1008 NOSIG
Conditions at: YBBN (BRISBANE INTL AR, AU) observed 0600 UTC 19 March 2019
Temperature: 29.0°C (84°F)
Dewpoint: 22.0°C (72°F) [RH = 66%]
Pressure (altimeter): 29.76 inches Hg (1008.0 mb)
Winds: from the NNE (30 degrees) at 15 MPH (13 knots; 6.7 m/s)
Visibility: 6 or more miles (10+ km)
Ceiling: ceiling and visibility are OK
Clouds: unknown
Weather: no significant weather observed at this time

METAR text: YBBN 190530Z 03013KT CAVOK 29/21 Q1008 NOSIG
Conditions at: YBBN (BRISBANE INTL AR, AU) observed 0530 UTC 19 March 2019
Temperature: 29.0°C (84°F)
Dewpoint: 21.0°C (70°F) [RH = 62%]
Pressure (altimeter): 29.76 inches Hg (1008.0 mb)
Winds: from the NNE (30 degrees) at 15 MPH (13 knots; 6.7 m/s)
Visibility: 6 or more miles (10+ km)
Ceiling: ceiling and visibility are OK
Clouds: unknown
Weather: no significant weather observed at this time

METAR text: YBBN 190500Z 03011KT CAVOK 30/21 Q1008
Conditions at: YBBN (BRISBANE INTL AR, AU) observed 0500 UTC 19 March 2019
Temperature: 30.0°C (86°F)
Dewpoint: 21.0°C (70°F) [RH = 59%]
Pressure (altimeter): 29.76 inches Hg (1008.0 mb)
Winds: from the NNE (30 degrees) at 13 MPH (11 knots; 5.7 m/s)
Visibility: 6 or more miles (10+ km)
Ceiling: ceiling and visibility are OK
Clouds: unknown
Weather: no significant weather observed at this time

METAR text: YBBN 190430Z 03011KT CAVOK 30/20 Q1009 NOSIG
Conditions at: YBBN (BRISBANE INTL AR, AU) observed 0430 UTC 19 March 2019
Temperature: 30.0°C (86°F)
Dewpoint: 20.0°C (68°F) [RH = 55%]
Pressure (altimeter): 29.79 inches Hg (1009.0 mb)
Winds: from the NNE (30 degrees) at 13 MPH (11 knots; 5.7 m/s)
Visibility: 6 or more miles (10+ km)
Ceiling: ceiling and visibility are OK
Clouds: unknown
Weather: no significant weather observed at this time

METAR text: YBBN 190400Z 03010KT CAVOK 29/21 Q1009 NOSIG
Conditions at: YBBN (BRISBANE INTL AR, AU) observed 0400 UTC 19 March 2019
Temperature: 29.0°C (84°F)
Dewpoint: 21.0°C (70°F) [RH = 62%]
Pressure (altimeter): 29.79 inches Hg (1009.0 mb)
Winds: from the NNE (30 degrees) at 12 MPH (10 knots; 5.1 m/s)
Visibility: 6 or more miles (10+ km)
Ceiling: ceiling and visibility are OK
Clouds: unknown
Weather: no significant weather observed at this time

METAR text: YBBN 190330Z 03009KT CAVOK 30/21 Q1009 NOSIG
Conditions at: YBBN (BRISBANE INTL AR, AU) observed 0330 UTC 19 March 2019
Temperature: 30.0°C (86°F)
Dewpoint: 21.0°C (70°F) [RH = 59%]
Pressure (altimeter): 29.79 inches Hg (1009.0 mb)
Winds: from the NNE (30 degrees) at 10 MPH (9 knots; 4.6 m/s)
Visibility: 6 or more miles (10+ km)
Ceiling: ceiling and visibility are OK
Clouds: unknown
Weather: no significant weather observed at this time

METAR text: YBBN 190300Z AUTO 03009KT 9999 // NCD 29/21 Q1010
Conditions at: YBBN (BRISBANE INTL AR, AU) observed 0300 UTC 19 March 2019
Temperature: 29.0°C (84°F)
Dewpoint: 21.0°C (70°F) [RH = 62%]
Pressure (altimeter): 29.82 inches Hg (1010.0 mb)
Winds: from the NNE (30 degrees) at 10 MPH (9 knots; 4.6 m/s)
Visibility: 6 or more miles (10+ km)
Ceiling: at least 12,000 feet AGL
Clouds: sky clear below 12,000 feet AGL
Weather: no significant weather observed at this time

METAR text: YBBN 190230Z 03009KT CAVOK 30/21 Q1010 NOSIG
Conditions at: YBBN (BRISBANE INTL AR, AU) observed 0230 UTC 19 March 2019
Temperature: 30.0°C (86°F)
Dewpoint: 21.0°C (70°F) [RH = 59%]
Pressure (altimeter): 29.82 inches Hg (1010.0 mb)
Winds: from the NNE (30 degrees) at 10 MPH (9 knots; 4.6 m/s)
Visibility: 6 or more miles (10+ km)
Ceiling: ceiling and visibility are OK
Clouds: unknown
Weather: no significant weather observed at this time

METAR text: YBBN 190200Z 03007KT 9999 FEW040 29/20 Q1010 NOSIG
Conditions at: YBBN (BRISBANE INTL AR, AU) observed 0200 UTC 19 March 2019
Temperature: 29.0°C (84°F)
Dewpoint: 20.0°C (68°F) [RH = 58%]
Pressure (altimeter): 29.82 inches Hg (1010.0 mb)
Winds: from the NNE (30 degrees) at 8 MPH (7 knots; 3.6 m/s)
Visibility: 6 or more miles (10+ km)
Ceiling: at least 12,000 feet AGL
Clouds: few clouds at 4000 feet AGL
Weather: no significant weather observed at this time

METAR text: YBBN 190130Z 01009KT 9999 FEW045 30/16 Q1011 NOSIG
Conditions at: YBBN (BRISBANE INTL AR, AU) observed 0130 UTC 19 March 2019
Temperature: 30.0°C (86°F)
Dewpoint: 16.0°C (61°F) [RH = 43%]
Pressure (altimeter): 29.85 inches Hg (1011.0 mb)
Winds: from the N (10 degrees) at 10 MPH (9 knots; 4.6 m/s)
Visibility: 6 or more miles (10+ km)
Ceiling: at least 12,000 feet AGL
Clouds: few clouds at 4500 feet AGL
Weather: no significant weather observed at this time

METAR text: YBBN 190100Z 33006KT 9999 FEW045 30/19 Q1012 FM0200 040010KT 9999 FEW030
Conditions at: YBBN (BRISBANE INTL AR, AU) observed 0100 UTC 19 March 2019
Temperature: 30.0°C (86°F)
Dewpoint: 19.0°C (66°F) [RH = 52%]
Pressure (altimeter): 29.88 inches Hg (1012.0 mb)
Winds: from the NNW (330 degrees) at 7 MPH (6 knots; 3.1 m/s)
Visibility: 6 or more miles (10+ km)
Ceiling: at least 12,000 feet AGL
Clouds: few clouds at 4500 feet AGL
Weather: no significant weather observed at this time

METAR text: YBBN 190030Z 35007KT 9999 FEW045 29/18 Q1012 NOSIG
Conditions at: YBBN (BRISBANE INTL AR, AU) observed 0030 UTC 19 March 2019
Temperature: 29.0°C (84°F)
Dewpoint: 18.0°C (64°F) [RH = 52%]
Pressure (altimeter): 29.88 inches Hg (1012.0 mb)
Winds: from the N (350 degrees) at 8 MPH (7 knots; 3.6 m/s)
Visibility: 6 or more miles (10+ km)
Ceiling: at least 12,000 feet AGL
Clouds: few clouds at 4500 feet AGL
Weather: no significant weather observed at this time

METAR text: YBBN 190000Z 02006KT CAVOK 28/19 Q1012 NOSIG
Conditions at: YBBN (BRISBANE INTL AR, AU) observed 0000 UTC 19 March 2019
Temperature: 28.0°C (82°F)
Dewpoint: 19.0°C (66°F) [RH = 58%]
Pressure (altimeter): 29.88 inches Hg (1012.0 mb)
Winds: from the NNE (20 degrees) at 7 MPH (6 knots; 3.1 m/s)
Visibility: 6 or more miles (10+ km)
Ceiling: ceiling and visibility are OK
Clouds: unknown
Weather: no significant weather observed at this time

METAR text: YBBN 182330Z 35005KT CAVOK 27/20 Q1012 FM0000 04010KT 9999 FEW030
Conditions at: YBBN (BRISBANE INTL AR, AU) observed 2330 UTC 18 March 2019
Temperature: 27.0°C (81°F)
Dewpoint: 20.0°C (68°F) [RH = 66%]
Pressure (altimeter): 29.88 inches Hg (1012.0 mb)
Winds: from the N (350 degrees) at 6 MPH (5 knots; 2.6 m/s)
Visibility: 6 or more miles (10+ km)
Ceiling: ceiling and visibility are OK
Clouds: unknown
Weather: no significant weather observed at this time

METAR text: YBBN 182300Z 35005KT CAVOK 26/20 Q1012 FM0000 04010KT 9999 FEW030
Conditions at: YBBN (BRISBANE INTL AR, AU) observed 2300 UTC 18 March 2019
Temperature: 26.0°C (79°F)
Dewpoint: 20.0°C (68°F) [RH = 70%]
Pressure (altimeter): 29.88 inches Hg (1012.0 mb)
Winds: from the N (350 degrees) at 6 MPH (5 knots; 2.6 m/s)
Visibility: 6 or more miles (10+ km)
Ceiling: ceiling and visibility are OK
Clouds: unknown
Weather: no significant weather observed at this time

METAR text: YBBN 182230Z 31003KT CAVOK 25/21 Q1012 FM0000 04010KT 9999 SCT030
Conditions at: YBBN (BRISBANE INTL AR, AU) observed 2230 UTC 18 March 2019
Temperature: 25.0°C (77°F)
Dewpoint: 21.0°C (70°F) [RH = 79%]
Pressure (altimeter): 29.88 inches Hg (1012.0 mb)
Winds: from the NW (310 degrees) at 3 MPH (3 knots; 1.5 m/s)
Visibility: 6 or more miles (10+ km)
Ceiling: ceiling and visibility are OK
Clouds: unknown
Weather: no significant weather observed at this time

METAR text: YBBN 182200Z 27004KT CAVOK 23/20 Q1012 FM0000 04010KT 9999 SCT030
Conditions at: YBBN (BRISBANE INTL AR, AU) observed 2200 UTC 18 March 2019
Temperature: 23.0°C (73°F)
Dewpoint: 20.0°C (68°F) [RH = 83%]
Pressure (altimeter): 29.88 inches Hg (1012.0 mb)
Winds: from the W (270 degrees) at 5 MPH (4 knots; 2.1 m/s)
Visibility: 6 or more miles (10+ km)
Ceiling: ceiling and visibility are OK
Clouds: unknown
Weather: no significant weather observed at this time

METAR text: YBBN 182130Z 22005KT CAVOK 22/20 Q1012 FM0000 04010KT 9999 SCT030
Conditions at: YBBN (BRISBANE INTL AR, AU) observed 2130 UTC 18 March 2019
Temperature: 22.0°C (72°F)
Dewpoint: 20.0°C (68°F) [RH = 88%]
Pressure (altimeter): 29.88 inches Hg (1012.0 mb)
Winds: from the SW (220 degrees) at 6 MPH (5 knots; 2.6 m/s)
Visibility: 6 or more miles (10+ km)
Ceiling: ceiling and visibility are OK
Clouds: unknown
Weather: no significant weather observed at this time

METAR text: YBBN 182100Z 21005KT 9999 FEW045 21/20 Q1012 NOSIG
Conditions at: YBBN (BRISBANE INTL AR, AU) observed 2100 UTC 18 March 2019
Temperature: 21.0°C (70°F)
Dewpoint: 20.0°C (68°F) [RH = 94%]
Pressure (altimeter): 29.88 inches Hg (1012.0 mb)
Winds: from the SSW (210 degrees) at 6 MPH (5 knots; 2.6 m/s)
Visibility: 6 or more miles (10+ km)
Ceiling: at least 12,000 feet AGL
Clouds: few clouds at 4500 feet AGL
Weather: no significant weather observed at this time

METAR text: YBBN 182030Z 21005KT 9999 FEW015 20/20 Q1011 NOSIG
Conditions at: YBBN (BRISBANE INTL AR, AU) observed 2030 UTC 18 March 2019
Temperature: 20.0°C (68°F)
Dewpoint: 20.0°C (68°F) [RH = 100%]
Pressure (altimeter): 29.85 inches Hg (1011.0 mb)
Winds: from the SSW (210 degrees) at 6 MPH (5 knots; 2.6 m/s)
Visibility: 6 or more miles (10+ km)
Ceiling: at least 12,000 feet AGL
Clouds: few clouds at 1500 feet AGL
Weather: no significant weather observed at this time

Forecast for: AMD
Text: TAF AMD YBBN 200631Z 2007/2112 06012KT 9999 -SHRA SCT017 SCT040
Forecast period: 0700 to 0900 UTC 20 March 2019
Forecast type: FROM: standard forecast or significant change
Winds: from the ENE (60 degrees) at 14 MPH (12 knots; 6.2 m/s)
Visibility: 6 or more miles 10+ km)
Ceiling: at least 12,000 feet AGL
Clouds: scattered clouds at 1700 feet AGL
scattered clouds at 4000 feet AGL
Weather: -SHRA  (light rain showers)
Text: FM200900 06012KT 9999 -SHRA SCT015 BKN020
Forecast period: 0900 to 1200 UTC 20 March 2019
Forecast type: FROM: standard forecast or significant change
Winds: from the ENE (60 degrees) at 14 MPH (12 knots; 6.2 m/s)
Visibility: 6 or more miles 10+ km)
Ceiling: 2000 feet AGL
Clouds: scattered clouds at 1500 feet AGL
broken clouds at 2000 feet AGL
Weather: -SHRA  (light rain showers)
Text: FM201200 14010KT 9999 -SHRA SCT013 BKN020
Forecast period: 1200 to 1800 UTC 20 March 2019
Forecast type: FROM: standard forecast or significant change
Winds: from the SE (140 degrees) at 12 MPH (10 knots; 5.1 m/s)
Visibility: 6 or more miles 10+ km)
Ceiling: 2000 feet AGL
Clouds: scattered clouds at 1300 feet AGL
broken clouds at 2000 feet AGL
Weather: -SHRA  (light rain showers)
Text: FM201800 20005KT 9999 -SHRA SCT010 BKN020
Forecast period: 1800 UTC 20 March 2019 to 0000 UTC 21 March 2019
Forecast type: FROM: standard forecast or significant change
Winds: from the SSW (200 degrees) at 6 MPH (5 knots; 2.6 m/s)
Visibility: 6 or more miles 10+ km)
Ceiling: 2000 feet AGL
Clouds: scattered clouds at 1000 feet AGL
broken clouds at 2000 feet AGL
Weather: -SHRA  (light rain showers)
Text: FM210000 14010KT 9999 -SHRA FEW020 SCT030
Forecast period: 0000 to 0400 UTC 21 March 2019
Forecast type: FROM: standard forecast or significant change
Winds: from the SE (140 degrees) at 12 MPH (10 knots; 5.1 m/s)
Visibility: 6 or more miles 10+ km)
Ceiling: at least 12,000 feet AGL
Clouds: few clouds at 2000 feet AGL
scattered clouds at 3000 feet AGL
Weather: -SHRA  (light rain showers)
Text: FM210400 11013KT 9999 NSW FEW020 SCT040 INTER 2009/2015 4000 SHRA BKN010
Forecast period: 0400 to 1200 UTC 21 March 2019
Forecast type: FROM: standard forecast or significant change
Winds: from the ESE (110 degrees) at 15 MPH (13 knots; 6.7 m/s)
Visibility: 6 or more miles 10+ km)
Ceiling: at least 12,000 feet AGL
Clouds: few clouds at 2000 feet AGL
scattered clouds at 4000 feet AGL
Weather: NSW  (no significant weather)
Text: TEMPO 2015/2022 8000 -SHRA BKN010 INTER 2022/2104 3000 SHRA BKN015
Forecast period: 0900 to 1500 UTC 20 March 2019
Forecast type: TEMPORARY: The following changes expected for less than half the time period
Visibility: 2.49 miles (4.01 km)
Ceiling: 1000 feet AGL
Clouds: broken clouds at 1000 feet AGL
Weather: SHRA  (rain showers)
Text:
Forecast period: 1500 to 2200 UTC 20 March 2019
Forecast type: TEMPORARY: The following changes expected for less than half the time period
Visibility: 5 miles (8 km)
Ceiling: 1000 feet AGL
Clouds: broken clouds at 1000 feet AGL
Weather: -SHRA  (light rain showers)
Text:
Forecast period: 2200 UTC 20 March 2019 to 0400 UTC 21 March 2019
Forecast type: TEMPORARY: The following changes expected for less than half the time period
Visibility: 1.86 miles (2.99 km)
Ceiling: 1500 feet AGL
Clouds: broken clouds at 1500 feet AGL
Weather: SHRA  (rain showers)